createdAt,value
2017-09-10T00:02:17.305Z,87.20
2017-09-10T00:04:46.412Z,87.80
2017-09-10T00:07:15.504Z,87.65
2017-09-10T00:09:44.618Z,87.56
2017-09-10T00:12:12.982Z,87.24
2017-09-10T00:14:41.773Z,87.52
2017-09-10T00:17:10.091Z,87.91
2017-09-10T00:19:39.270Z,87.98
2017-09-10T00:22:08.381Z,88.43
2017-09-10T00:24:36.703Z,88.17
2017-09-10T00:27:05.056Z,88.00
2017-09-10T00:29:35.314Z,88.93
2017-09-10T00:32:03.661Z,88.95
2017-09-10T00:34:31.993Z,88.94
2017-09-10T00:37:02.012Z,88.54
2017-09-10T00:39:30.359Z,89.19
2017-09-10T00:41:58.689Z,89.20
2017-09-10T00:44:27.034Z,89.16
2017-09-10T00:46:55.350Z,88.47
2017-09-10T00:49:24.915Z,88.37
2017-09-10T00:51:54.144Z,88.90
2017-09-10T00:54:22.509Z,88.95
2017-09-10T00:56:51.621Z,89.19
2017-09-10T00:59:19.977Z,89.04
2017-09-10T01:01:48.327Z,88.98
2017-09-10T01:04:16.681Z,89.02
2017-09-10T01:06:46.930Z,88.91
2017-09-10T01:09:15.264Z,88.61
2017-09-10T01:11:43.582Z,88.72
2017-09-10T01:14:11.963Z,88.71
2017-09-10T01:16:40.285Z,88.30
2017-09-10T01:19:09.382Z,87.91
2017-09-10T01:21:38.463Z,88.27
2017-09-10T01:24:07.107Z,87.93
2017-09-10T01:26:35.446Z,87.86
2017-09-10T01:29:04.546Z,87.18
2017-09-10T01:31:32.886Z,87.07
2017-09-10T01:34:01.206Z,87.12
2017-09-10T01:36:31.470Z,87.53
2017-09-10T01:38:59.791Z,88.03
2017-09-10T01:41:28.916Z,88.54
2017-09-10T01:43:57.256Z,88.72
2017-09-10T01:46:25.571Z,88.23
2017-09-10T01:48:54.689Z,88.46
2017-09-10T01:51:23.013Z,88.76
2017-09-10T01:53:51.354Z,89.25
2017-09-10T01:56:19.674Z,88.91
2017-09-10T01:58:48.015Z,89.06
2017-09-10T02:01:17.045Z,89.08
2017-09-10T02:03:45.427Z,88.78
2017-09-10T02:06:13.792Z,88.64
2017-09-10T02:08:43.335Z,89.20
2017-09-10T02:11:11.668Z,88.83
2017-09-10T02:13:39.989Z,88.26
2017-09-10T02:16:08.331Z,88.89
2017-09-10T02:18:36.685Z,88.69
2017-09-10T02:21:05.033Z,89.20
2017-09-10T02:23:34.135Z,89.26
2017-09-10T02:26:03.264Z,89.85
2017-09-10T02:28:31.595Z,89.65
2017-09-10T02:30:59.928Z,89.45
2017-09-10T02:33:28.299Z,89.64
2017-09-10T02:35:56.658Z,89.66
2017-09-10T02:38:24.993Z,89.70
2017-09-10T02:40:53.346Z,89.64
2017-09-10T02:43:21.679Z,89.64
2017-09-10T02:45:50.785Z,89.99
2017-09-10T02:48:19.123Z,89.85
2017-09-10T02:50:47.480Z,90.02
2017-09-10T02:53:15.824Z,90.05
2017-09-10T02:55:44.932Z,90.00
2017-09-10T02:58:13.266Z,89.70
2017-09-10T03:00:41.575Z,89.79
2017-09-10T03:03:10.686Z,89.40
2017-09-10T03:05:39.002Z,89.33
2017-09-10T03:08:07.609Z,89.15
2017-09-10T03:10:35.930Z,89.13
2017-09-10T03:13:04.245Z,89.15
2017-09-10T03:15:32.626Z,89.04
2017-09-10T03:18:00.954Z,88.69
2017-09-10T03:20:29.305Z,88.10
2017-09-10T03:22:57.628Z,88.75
2017-09-10T03:25:26.389Z,89.08
2017-09-10T03:27:54.704Z,89.29
2017-09-10T03:30:23.801Z,89.18
2017-09-10T03:32:52.149Z,88.59
2017-09-10T03:35:20.479Z,88.69
2017-09-10T03:37:48.833Z,88.42
2017-09-10T03:40:17.166Z,87.56
2017-09-10T03:42:45.517Z,88.51
2017-09-10T03:45:13.846Z,88.05
2017-09-10T03:47:42.720Z,87.95
2017-09-10T03:50:11.072Z,87.97
2017-09-10T03:52:39.448Z,88.02
2017-09-10T03:55:07.820Z,87.66
2017-09-10T03:57:36.165Z,87.21
2017-09-10T04:00:04.814Z,87.98
2017-09-10T04:02:33.220Z,88.77
2017-09-10T04:05:02.308Z,88.06
2017-09-10T04:07:30.660Z,88.78
2017-09-10T04:09:58.989Z,88.22
2017-09-10T04:12:27.365Z,87.60
2017-09-10T04:14:55.685Z,88.47
2017-09-10T04:17:24.516Z,88.28
2017-09-10T04:19:53.591Z,88.45
2017-09-10T04:22:21.920Z,88.50
2017-09-10T04:24:50.265Z,87.95
2017-09-10T04:27:18.588Z,88.02
2017-09-10T04:29:46.914Z,88.38
2017-09-10T04:32:15.266Z,88.33
2017-09-10T04:34:43.613Z,88.32
2017-09-10T04:37:11.941Z,87.80
2017-09-10T04:39:40.261Z,88.36
2017-09-10T04:42:08.607Z,87.94
2017-09-10T04:44:36.935Z,87.68
2017-09-10T04:47:05.301Z,88.29
2017-09-10T04:49:33.617Z,87.91
2017-09-10T04:52:01.958Z,88.29
2017-09-10T04:54:30.302Z,88.03
2017-09-10T04:56:58.615Z,87.97
2017-09-10T04:59:26.939Z,87.39
2017-09-10T05:01:55.259Z,87.16
2017-09-10T05:04:23.608Z,88.31
2017-09-10T05:06:51.941Z,88.93
2017-09-10T05:09:20.279Z,88.97
2017-09-10T05:11:48.619Z,89.30
2017-09-10T05:14:17.827Z,89.27
2017-09-10T05:16:46.159Z,88.54
2017-09-10T05:19:15.235Z,88.32
2017-09-10T05:21:43.603Z,88.46
2017-09-10T05:24:11.928Z,88.86
2017-09-10T05:26:40.270Z,88.08
2017-09-10T05:29:08.602Z,87.59
2017-09-10T05:31:36.925Z,88.27
2017-09-10T05:34:05.264Z,88.92
2017-09-10T05:36:33.591Z,88.65
2017-09-10T05:39:01.945Z,88.21
2017-09-10T05:41:30.310Z,88.48
2017-09-10T05:43:58.674Z,89.41
2017-09-10T05:46:27.033Z,89.59
2017-09-10T05:48:56.127Z,88.58
2017-09-10T05:51:25.227Z,88.23
2017-09-10T05:53:53.563Z,89.16
2017-09-10T05:56:21.890Z,89.69
2017-09-10T05:58:50.237Z,89.41
2017-09-10T06:01:18.564Z,89.75
2017-09-10T06:03:46.904Z,89.99
2017-09-10T06:06:15.230Z,89.84
2017-09-10T06:08:43.581Z,89.40
2017-09-10T06:11:12.684Z,89.02
2017-09-10T06:13:40.994Z,88.79
2017-09-10T06:16:09.323Z,88.33
2017-09-10T06:18:38.456Z,89.25
2017-09-10T06:21:06.795Z,89.26
2017-09-10T06:23:35.910Z,90.04
2017-09-10T06:26:04.265Z,90.09
2017-09-10T06:28:32.608Z,89.17
2017-09-10T06:31:00.962Z,89.27
2017-09-10T06:33:29.282Z,89.30
2017-09-10T06:35:57.623Z,89.44
2017-09-10T06:38:26.371Z,89.32
2017-09-10T06:40:54.720Z,89.24
2017-09-10T06:43:23.099Z,89.67
2017-09-10T06:45:55.505Z,90.22
2017-09-10T06:48:23.842Z,90.17
2017-09-10T06:50:52.163Z,90.41
2017-09-10T06:53:20.762Z,90.25
2017-09-10T06:55:49.102Z,90.35
2017-09-10T06:58:17.437Z,89.73
2017-09-10T07:00:45.778Z,89.53
2017-09-10T07:03:14.106Z,89.51
2017-09-10T07:05:42.460Z,89.94
2017-09-10T07:08:11.175Z,89.00
2017-09-10T07:10:39.531Z,89.44
2017-09-10T07:13:08.307Z,88.67
2017-09-10T07:15:37.466Z,88.45
2017-09-10T07:18:06.618Z,88.07
2017-09-10T07:20:34.996Z,88.17
2017-09-10T07:23:04.120Z,88.03
2017-09-10T07:25:32.450Z,87.72
2017-09-10T07:28:01.366Z,86.91
2017-09-10T07:30:30.377Z,86.93
2017-09-10T07:32:59.231Z,87.12
2017-09-10T07:35:28.905Z,86.79
2017-09-10T07:37:58.082Z,86.84
2017-09-10T07:40:27.462Z,86.76
2017-09-10T07:42:56.976Z,86.79
2017-09-10T07:45:26.141Z,86.70
2017-09-10T07:47:54.491Z,86.90
2017-09-10T07:50:22.915Z,86.55
2017-09-10T07:52:52.034Z,85.80
2017-09-10T07:55:20.363Z,86.25
2017-09-10T07:57:48.995Z,85.38
2017-09-10T08:00:17.368Z,85.34
2017-09-10T08:02:46.518Z,85.77
2017-09-10T08:05:14.960Z,84.88
2017-09-10T08:07:43.737Z,84.87
2017-09-10T08:10:12.838Z,84.98
2017-09-10T08:12:41.246Z,84.32
2017-09-10T08:15:09.911Z,84.72
2017-09-10T08:17:38.262Z,84.29
2017-09-10T08:20:06.642Z,84.23
2017-09-10T08:22:35.048Z,84.48
2017-09-10T08:25:04.962Z,84.77
2017-09-10T08:27:33.329Z,84.38
2017-09-10T08:30:01.674Z,83.84
2017-09-10T08:32:30.416Z,83.77
2017-09-10T08:34:58.757Z,83.92
2017-09-10T08:37:27.112Z,83.23
2017-09-10T08:39:55.481Z,83.58
2017-09-10T08:42:23.840Z,83.65
2017-09-10T08:44:52.295Z,83.14
2017-09-10T08:47:21.415Z,83.12
2017-09-10T08:49:49.789Z,83.04
2017-09-10T08:52:19.056Z,82.51
2017-09-10T08:54:48.198Z,83.23
2017-09-10T08:57:18.478Z,82.98
2017-09-10T08:59:46.834Z,82.79
2017-09-10T09:02:15.451Z,82.79
2017-09-10T09:04:43.788Z,82.43
2017-09-10T09:07:12.882Z,82.40
2017-09-10T09:09:41.231Z,82.74
2017-09-10T09:12:10.204Z,82.17
2017-09-10T09:14:38.633Z,81.99
2017-09-10T09:17:06.980Z,81.87
2017-09-10T09:19:35.794Z,81.42
2017-09-10T09:22:04.186Z,81.02
2017-09-10T09:24:32.526Z,81.79
2017-09-10T09:27:00.898Z,82.02
2017-09-10T09:29:29.993Z,82.00
2017-09-10T09:31:58.345Z,81.56
2017-09-10T09:34:26.675Z,82.20
2017-09-10T09:36:55.028Z,81.92
2017-09-10T09:39:23.379Z,82.05
2017-09-10T09:41:51.719Z,80.63
2017-09-10T09:44:20.089Z,80.27
2017-09-10T09:46:49.189Z,80.62
2017-09-10T09:49:17.550Z,80.68
2017-09-10T09:51:45.880Z,80.50
2017-09-10T09:54:15.037Z,80.54
2017-09-10T09:56:43.720Z,80.73
2017-09-10T09:59:12.379Z,79.66
2017-09-10T10:01:40.741Z,79.95
2017-09-10T10:04:09.064Z,78.78
2017-09-10T10:06:38.570Z,78.80
2017-09-10T10:09:06.915Z,79.27
2017-09-10T10:11:35.259Z,78.60
2017-09-10T10:14:03.610Z,79.35
2017-09-10T10:16:31.995Z,80.03
2017-09-10T10:19:00.480Z,80.31
2017-09-10T10:21:29.572Z,79.84
2017-09-10T10:23:58.255Z,80.14
2017-09-10T10:26:26.581Z,80.51
2017-09-10T10:28:54.921Z,79.10
2017-09-10T10:31:23.323Z,79.33
2017-09-10T10:33:51.639Z,79.41
2017-09-10T10:36:20.000Z,78.98
2017-09-10T10:38:49.233Z,78.85
2017-09-10T10:41:17.595Z,79.27
2017-09-10T10:43:45.954Z,80.04
2017-09-10T10:46:14.297Z,80.13
2017-09-10T10:48:47.889Z,80.43
2017-09-10T10:51:16.270Z,79.81
2017-09-10T10:53:45.410Z,80.05
2017-09-10T10:56:13.887Z,80.30
2017-09-10T10:58:42.863Z,79.50
2017-09-10T11:01:11.242Z,79.68
2017-09-10T11:03:39.584Z,80.01
2017-09-10T11:06:07.965Z,79.44
2017-09-10T11:08:36.328Z,79.26
2017-09-10T11:11:05.128Z,79.98
2017-09-10T11:13:33.494Z,78.58
2017-09-10T11:16:01.871Z,79.51
2017-09-10T11:18:30.240Z,78.59
2017-09-10T11:20:58.573Z,77.98
2017-09-10T11:23:28.306Z,78.07
2017-09-10T11:25:56.660Z,78.04
2017-09-10T11:28:25.047Z,78.37
2017-09-10T11:30:53.400Z,78.93
2017-09-10T11:33:21.716Z,78.34
2017-09-10T11:35:50.073Z,78.66
2017-09-10T11:38:19.185Z,78.82
2017-09-10T11:40:47.559Z,78.98
2017-09-10T11:43:15.907Z,78.78
2017-09-10T11:45:44.264Z,79.14
2017-09-10T11:48:12.696Z,78.22
2017-09-10T11:50:41.028Z,78.45
2017-09-10T11:53:09.388Z,76.63
2017-09-10T11:55:37.720Z,75.65
2017-09-10T11:58:06.065Z,74.15
2017-09-10T12:00:34.456Z,74.67
2017-09-10T12:03:03.309Z,74.35
2017-09-10T12:05:31.640Z,74.62
2017-09-10T12:07:59.976Z,74.56
2017-09-10T12:10:28.324Z,73.90
2017-09-10T12:12:57.407Z,73.89
2017-09-10T12:15:26.539Z,72.80
2017-09-10T12:17:54.862Z,72.61
2017-09-10T12:20:23.229Z,72.23
2017-09-10T12:22:51.581Z,72.50
2017-09-10T12:25:19.913Z,71.92
2017-09-10T12:27:48.257Z,71.84
2017-09-10T12:30:16.598Z,72.19
2017-09-10T12:32:45.741Z,70.29
2017-09-10T12:35:14.079Z,70.09
2017-09-10T12:37:42.710Z,69.99
2017-09-10T12:40:11.050Z,69.68
2017-09-10T12:42:39.387Z,69.00
2017-09-10T12:45:07.741Z,69.74
2017-09-10T12:47:36.074Z,68.67
2017-09-10T12:50:04.421Z,68.75
2017-09-10T12:52:32.755Z,68.44
2017-09-10T12:55:01.154Z,68.58
2017-09-10T12:57:29.500Z,68.83
2017-09-10T12:59:58.611Z,69.32
2017-09-10T13:02:26.964Z,69.52
2017-09-10T13:04:55.313Z,69.71
2017-09-10T13:07:23.674Z,69.47
2017-09-10T13:09:52.016Z,68.72
2017-09-10T13:12:21.151Z,68.12
2017-09-10T13:14:49.494Z,67.00
2017-09-10T13:17:17.828Z,67.20
2017-09-10T13:19:46.166Z,67.42
2017-09-10T13:22:14.501Z,66.85
2017-09-10T13:24:42.928Z,67.84
2017-09-10T13:27:11.269Z,66.32
2017-09-10T13:29:39.990Z,65.65
2017-09-10T13:32:08.310Z,65.18
2017-09-10T13:34:36.638Z,65.41
2017-09-10T13:37:05.009Z,65.51
2017-09-10T13:39:34.100Z,65.04
2017-09-10T13:42:02.463Z,64.67
2017-09-10T13:44:30.807Z,65.52
2017-09-10T13:46:59.797Z,64.97
2017-09-10T13:49:28.137Z,65.65
2017-09-10T13:51:57.276Z,66.13
2017-09-10T13:54:25.645Z,64.80
2017-09-10T13:56:53.972Z,65.92
2017-09-10T13:59:22.307Z,66.73
2017-09-10T14:01:50.635Z,67.11
2017-09-10T14:04:19.012Z,67.10
2017-09-10T14:06:47.338Z,66.95
2017-09-10T14:09:15.676Z,66.92
2017-09-10T14:11:44.035Z,66.44
2017-09-10T14:14:12.383Z,65.92
2017-09-10T14:16:40.745Z,65.11
2017-09-10T14:19:09.103Z,63.59
2017-09-10T14:21:37.468Z,62.41
2017-09-10T14:24:05.810Z,61.88
2017-09-10T14:26:34.162Z,60.58
2017-09-10T14:29:02.532Z,60.59
2017-09-10T14:31:31.633Z,60.42
2017-09-10T14:33:59.976Z,61.26
2017-09-10T14:36:28.306Z,62.02
2017-09-10T14:38:57.077Z,61.92
2017-09-10T14:41:25.412Z,62.94
2017-09-10T14:43:53.736Z,63.56
2017-09-10T14:46:22.090Z,63.76
2017-09-10T14:48:50.412Z,63.30
2017-09-10T14:51:18.769Z,63.56
2017-09-10T14:53:47.871Z,62.02
2017-09-10T14:56:17.000Z,60.80
2017-09-10T14:58:45.346Z,58.92
2017-09-10T15:01:13.678Z,59.38
2017-09-10T15:03:42.033Z,58.32
2017-09-10T15:06:10.359Z,58.99
2017-09-10T15:08:38.723Z,58.32
2017-09-10T15:11:07.063Z,59.17
2017-09-10T15:13:35.668Z,57.73
2017-09-10T15:16:03.992Z,57.78
2017-09-10T15:18:32.341Z,57.45
2017-09-10T15:21:00.693Z,56.44
2017-09-10T15:23:29.036Z,54.73
2017-09-10T15:25:58.168Z,53.68
2017-09-10T15:28:26.484Z,54.09
2017-09-10T15:30:54.866Z,53.54
2017-09-10T15:33:23.237Z,55.49
2017-09-10T15:35:51.580Z,56.48
2017-09-10T15:38:19.970Z,56.90
2017-09-10T15:40:48.296Z,55.76
2017-09-10T15:43:16.652Z,54.11
2017-09-10T15:45:45.468Z,54.16
2017-09-10T15:48:13.825Z,56.40
2017-09-10T15:50:42.169Z,55.34
2017-09-10T15:53:10.510Z,57.85
2017-09-10T15:55:40.939Z,59.10
2017-09-10T15:58:10.098Z,59.86
2017-09-10T16:00:38.421Z,60.60
2017-09-10T16:03:07.537Z,61.17
2017-09-10T16:05:35.880Z,61.21
2017-09-10T16:08:04.314Z,61.28
2017-09-10T16:10:32.650Z,61.66
2017-09-10T16:13:01.004Z,62.22
2017-09-10T16:15:29.383Z,61.68
2017-09-10T16:17:57.737Z,62.13
2017-09-10T16:20:26.068Z,61.83
2017-09-10T16:22:55.515Z,62.23
2017-09-10T16:25:23.841Z,64.41
2017-09-10T16:27:52.171Z,64.71
2017-09-10T16:30:20.532Z,63.26
2017-09-10T16:32:48.868Z,63.05
2017-09-10T16:35:17.846Z,63.26
2017-09-10T16:37:46.173Z,64.67
2017-09-10T16:40:15.520Z,64.85
2017-09-10T16:42:44.151Z,65.33
2017-09-10T16:45:13.320Z,67.82
2017-09-10T16:47:41.670Z,67.17
2017-09-10T16:50:10.028Z,66.76
2017-09-10T16:52:38.417Z,68.29
2017-09-10T16:55:06.752Z,68.15
2017-09-10T16:57:35.108Z,69.20
2017-09-10T17:00:03.440Z,69.39
2017-09-10T17:02:34.534Z,70.75
2017-09-10T17:05:02.878Z,70.47
2017-09-10T17:07:31.219Z,70.82
2017-09-10T17:09:59.585Z,70.51
2017-09-10T17:12:28.311Z,70.60
2017-09-10T17:14:56.669Z,70.91
2017-09-10T17:17:25.000Z,70.38
2017-09-10T17:19:53.345Z,70.89
2017-09-10T17:22:22.498Z,71.58
2017-09-10T17:24:50.852Z,72.69
2017-09-10T17:27:19.214Z,72.91
2017-09-10T17:29:47.546Z,72.64
2017-09-10T17:32:15.881Z,72.90
2017-09-10T17:34:44.227Z,74.23
2017-09-10T17:37:12.553Z,75.47
2017-09-10T17:39:40.893Z,75.17
2017-09-10T17:42:09.698Z,75.51
2017-09-10T17:44:38.322Z,75.52
2017-09-10T17:47:06.676Z,75.69
2017-09-10T17:49:35.004Z,76.30
2017-09-10T17:52:03.351Z,76.81
2017-09-10T17:54:33.740Z,77.13
2017-09-10T17:57:02.099Z,77.09
2017-09-10T17:59:30.434Z,77.23
2017-09-10T18:01:59.071Z,77.95
2017-09-10T18:04:27.432Z,77.74
2017-09-10T18:06:55.763Z,78.17
2017-09-10T18:09:24.106Z,79.05
2017-09-10T18:11:52.438Z,79.46
2017-09-10T18:14:21.059Z,79.18
2017-09-10T18:16:49.383Z,79.05
2017-09-10T18:19:17.727Z,79.70
2017-09-10T18:21:46.088Z,79.39
2017-09-10T18:24:14.415Z,80.17
2017-09-10T18:26:42.755Z,80.46
2017-09-10T18:29:11.165Z,80.39
2017-09-10T18:31:41.138Z,80.78
2017-09-10T18:34:10.248Z,81.06
2017-09-10T18:36:40.516Z,81.11
2017-09-10T18:39:09.306Z,81.31
2017-09-10T18:41:37.890Z,80.95
2017-09-10T18:44:06.510Z,81.63
2017-09-10T18:46:34.899Z,81.57
2017-09-10T18:49:03.265Z,81.84
2017-09-10T18:51:31.613Z,81.81
2017-09-10T18:54:00.120Z,82.20
2017-09-10T18:56:28.476Z,81.79
2017-09-10T18:58:56.843Z,81.98
2017-09-10T19:01:25.996Z,82.52
2017-09-10T19:03:54.324Z,83.05
2017-09-10T19:06:23.000Z,83.17
2017-09-10T19:08:52.208Z,83.29
2017-09-10T19:11:21.299Z,83.16
2017-09-10T19:13:49.654Z,82.33
2017-09-10T19:16:18.004Z,82.44
2017-09-10T19:18:46.631Z,83.60
2017-09-10T19:21:15.761Z,82.57
2017-09-10T19:23:44.097Z,82.58
2017-09-10T19:26:12.445Z,83.07
2017-09-10T19:28:40.782Z,82.87
2017-09-10T19:31:10.202Z,83.48
2017-09-10T19:33:38.554Z,83.49
2017-09-10T19:36:07.678Z,83.40
2017-09-10T19:38:36.027Z,83.65
2017-09-10T19:41:04.367Z,84.01
2017-09-10T19:43:32.775Z,83.64
2017-09-10T19:46:01.104Z,83.52
2017-09-10T19:48:29.463Z,84.17
2017-09-10T19:50:57.809Z,84.37
2017-09-10T19:53:27.078Z,84.00
2017-09-10T19:55:55.424Z,84.50
2017-09-10T19:58:23.745Z,84.97
2017-09-10T20:00:52.108Z,85.08
2017-09-10T20:03:20.424Z,84.52
2017-09-10T20:05:48.781Z,84.82
2017-09-10T20:08:17.136Z,85.16
2017-09-10T20:10:45.497Z,84.73
2017-09-10T20:13:13.854Z,85.41
2017-09-10T20:15:42.204Z,84.73
2017-09-10T20:18:10.549Z,85.38
2017-09-10T20:20:38.868Z,85.26
2017-09-10T20:23:07.227Z,85.20
2017-09-10T20:25:35.565Z,85.71
2017-09-10T20:28:04.947Z,85.62
2017-09-10T20:30:34.069Z,84.86
2017-09-10T20:33:03.163Z,84.93
2017-09-10T20:35:32.417Z,85.47
2017-09-10T20:38:00.751Z,85.55
2017-09-10T20:40:29.092Z,85.47
2017-09-10T20:42:57.411Z,86.02
2017-09-10T20:45:26.580Z,86.09
2017-09-10T20:47:54.897Z,86.19
2017-09-10T20:50:23.254Z,85.82
2017-09-10T20:52:51.606Z,85.72
2017-09-10T20:55:19.955Z,85.47
2017-09-10T20:57:48.307Z,85.83
2017-09-10T21:00:17.387Z,85.50
2017-09-10T21:02:46.026Z,85.09
2017-09-10T21:05:14.350Z,85.76
2017-09-10T21:07:42.727Z,85.86
2017-09-10T21:10:11.064Z,85.46
2017-09-10T21:12:39.371Z,84.68
2017-09-10T21:15:07.719Z,84.96
2017-09-10T21:17:36.944Z,84.74
2017-09-10T21:20:05.298Z,85.21
2017-09-10T21:22:33.642Z,85.28
2017-09-10T21:25:01.966Z,85.87
2017-09-10T21:27:30.310Z,86.32
2017-09-10T21:29:59.658Z,86.38
2017-09-10T21:32:28.033Z,86.74
2017-09-10T21:34:56.365Z,86.87
2017-09-10T21:37:24.713Z,87.01
2017-09-10T21:39:53.067Z,86.90
2017-09-10T21:42:21.396Z,86.61
2017-09-10T21:44:49.746Z,86.68
2017-09-10T21:47:18.078Z,86.55
2017-09-10T21:49:46.450Z,87.04
2017-09-10T21:52:14.800Z,86.37
2017-09-10T21:54:43.145Z,86.07
2017-09-10T21:57:12.207Z,86.37
2017-09-10T21:59:40.536Z,86.40
2017-09-10T22:02:08.881Z,87.04
2017-09-10T22:04:37.191Z,86.65
2017-09-10T22:07:05.518Z,86.59
2017-09-10T22:09:33.839Z,86.77
2017-09-10T22:12:02.233Z,87.03
2017-09-10T22:14:30.567Z,86.84
2017-09-10T22:16:58.921Z,86.55
2017-09-10T22:19:28.021Z,85.96
2017-09-10T22:21:56.365Z,86.43
2017-09-10T22:24:24.737Z,86.79
2017-09-10T22:26:53.056Z,87.01
2017-09-10T22:29:22.146Z,86.59
2017-09-10T22:31:50.480Z,86.04
2017-09-10T22:34:19.071Z,85.72
2017-09-10T22:36:47.397Z,86.62
2017-09-10T22:39:16.498Z,86.97
2017-09-10T22:41:45.609Z,86.94
2017-09-10T22:44:13.919Z,86.91
2017-09-10T22:46:42.252Z,86.81
2017-09-10T22:49:11.347Z,86.78
2017-09-10T22:51:40.457Z,86.20
2017-09-10T22:54:08.891Z,86.91
2017-09-10T22:56:37.280Z,86.29
2017-09-10T22:59:05.633Z,85.67
2017-09-10T23:01:33.950Z,85.61
2017-09-10T23:04:03.198Z,85.87
2017-09-10T23:06:31.521Z,86.60
2017-09-10T23:08:59.834Z,86.48
2017-09-10T23:11:28.458Z,86.92
2017-09-10T23:13:56.784Z,86.37
2017-09-10T23:16:25.675Z,86.63
2017-09-10T23:18:54.023Z,86.84
2017-09-10T23:21:22.348Z,86.17
2017-09-10T23:23:51.008Z,86.47
2017-09-10T23:26:19.315Z,87.30
2017-09-10T23:28:47.654Z,87.04
2017-09-10T23:31:15.998Z,86.53
2017-09-10T23:33:45.051Z,86.99
2017-09-10T23:36:14.347Z,87.74
2017-09-10T23:38:42.686Z,87.10
2017-09-10T23:41:11.015Z,86.48
2017-09-10T23:43:39.365Z,87.04
2017-09-10T23:46:08.482Z,87.04
2017-09-10T23:48:36.840Z,87.15
2017-09-10T23:51:05.160Z,87.70
2017-09-10T23:53:33.505Z,87.28
2017-09-10T23:56:01.842Z,87.28
2017-09-10T23:58:30.172Z,86.97
